METAR AND TAF INFORMATION
METAR FOR EGCC
ADDS - METARS form results

(1049 UTC 21 May 2019)
Data provider http://aviationweather.gov/metar/data/
 
METAR text: EGCC 211020Z AUTO 28012KT 9999 SCT031 BKN038 15/06 Q1019
Conditions at: EGCC (MANCHESTER INTL , GB) observed 1020 UTC 21 May 2019
Temperature: 15.0°C (59°F)
Dewpoint: 6.0°C (43°F) [RH = 55%]
Pressure (altimeter): 30.09 inches Hg (1019.0 mb)
Winds: from the W (280 degrees) at 14 MPH (12 knots; 6.2 m/s)
Visibility: 6 or more miles (10+ km)
Ceiling: 3800 feet AGL
Clouds: scattered clouds at 3100 feet AGL
broken clouds at 3800 feet AGL
Weather: no significant weather observed at this time

METAR text: EGCC 210950Z AUTO 29011KT 9999 BKN028 14/07 Q1019 NOSIG
Conditions at: EGCC (MANCHESTER INTL , GB) observed 0950 UTC 21 May 2019
Temperature: 14.0°C (57°F)
Dewpoint: 7.0°C (45°F) [RH = 63%]
Pressure (altimeter): 30.09 inches Hg (1019.0 mb)
Winds: from the WNW (290 degrees) at 13 MPH (11 knots; 5.7 m/s)
Visibility: 6 or more miles (10+ km)
Ceiling: 2800 feet AGL
Clouds: broken clouds at 2800 feet AGL
Weather: no significant weather observed at this time

Forecast for: EGCC (MANCHESTER INTL , GB)
Text: TAF EGCC 210455Z 2106/2212 29009KT 9999 FEW025
Forecast period: 0600 UTC 21 May 2019 to 1200 UTC 22 May 2019
Forecast type: FROM: standard forecast or significant change
Winds: from the WNW (290 degrees) at 10 MPH (9 knots; 4.6 m/s)
Visibility: 6 or more miles 10+ km)
Ceiling: at least 12,000 feet AGL
Clouds: few clouds at 2500 feet AGL
Weather: no significant weather forecast for this period
Text: TEMPO 2106/2109 6000 BKN006
Forecast period: 0600 to 0900 UTC 21 May 2019
Forecast type: TEMPORARY: The following changes expected for less than half the time period
Visibility: 4 miles (6 km)
Ceiling: 600 feet AGL
Clouds: broken clouds at 600 feet AGL
Weather: no significant weather forecast for this period

 AIRPORT MAP

 RUNWAY INFORMATION
Runway 05L Runway length 10000 ft Runway width 150 ft
Runway elevation 212 ft Runway displaced threshold 1401 ft Runway heading 51
Runway 23R Runway length 10000 ft Runway width 150 ft
Runway elevation 249 ft Runway displaced threshold 600 ft Runway heading 231
Runway 05R Runway length 9997 ft Runway width 150 ft
Runway elevation 186 ft Runway displaced threshold 604 ft Runway heading 51
Runway 23L Runway length 9997 ft Runway width 150 ft
Runway elevation 227 ft Runway displaced threshold 604 ft Runway heading 231

 AIRPORT FREQUENCIES
Type APP Name APP Frequency 135 MHZ
Type ATIS Name ATIS Frequency 128.175 MHZ
Type CLD Name CLNC DEL Frequency 121.7 MHZ
Type GND Name GND Frequency 121.85 MHZ
Type TWR Name TWR Frequency 118.625 MHZ

 AIRPORT NEAR NAVIGATION AIDS
Type NDB Name Manchester Frequency 428 KHZ
Type VOR-DME Name Manchester Frequency 113550 KHZ



Powered by Virtual Airlines Manager [v2.6.1]